Alligator Point, Florida
Current Conditions -  °F | °C
As of 1:53 AM on Saturday 01 Nov 2014 (Local Time) from KTLH Reporting Station
Clear Clear  
Wind Chill: 58°   Ceiling: Unl
Heat Index: 58°   Visibility: 10mi
Dew Point: 45°   Wind: 14mph
Humidity: 62%   Direction: 320°NW
Pressure: 29.97"   Gusts: NA
Location:  30.0223°N, 84.3911°W
Report Text: KTLH 010553Z AUTO 32012KT 10SM CLR 14/07 A2997 RMK AO2 SLP146 T01440072 10183 20133 53011 $
Loading
Personal Weather Stations






























Interactive Weather Map
Tropical Storm Tracking
New forecast layout! Learn more

10-Day Weather Forecast

Advertisements
Track Severe Weather on mobile